sensor_id;sensor_type;location;lat;lon;timestamp;P1;durP1;ratioP1;P2;durP2;ratioP2
75261;SDS011;63859;51.064;4.580;2023-04-03T00:01:30;9.67;;;6.03;;
75261;SDS011;63859;51.064;4.580;2023-04-03T00:03:55;13.63;;;6.77;;
75261;SDS011;63859;51.064;4.580;2023-04-03T00:06:22;10.23;;;6.20;;
75261;SDS011;63859;51.064;4.580;2023-04-03T00:08:49;8.20;;;6.47;;
75261;SDS011;63859;51.064;4.580;2023-04-03T00:11:15;14.30;;;6.27;;
75261;SDS011;63859;51.064;4.580;2023-04-03T00:13:41;8.73;;;6.00;;
75261;SDS011;63859;51.064;4.580;2023-04-03T00:16:07;9.57;;;5.70;;
75261;SDS011;63859;51.064;4.580;2023-04-03T00:18:34;9.20;;;6.03;;
75261;SDS011;63859;51.064;4.580;2023-04-03T00:21:00;6.90;;;5.07;;
75261;SDS011;63859;51.064;4.580;2023-04-03T00:23:26;9.07;;;5.57;;
75261;SDS011;63859;51.064;4.580;2023-04-03T00:25:53;8.37;;;6.00;;
75261;SDS011;63859;51.064;4.580;2023-04-03T00:28:18;7.97;;;5.47;;
75261;SDS011;63859;51.064;4.580;2023-04-03T00:30:44;9.43;;;5.60;;
75261;SDS011;63859;51.064;4.580;2023-04-03T00:33:11;9.77;;;6.03;;
75261;SDS011;63859;51.064;4.580;2023-04-03T00:35:37;9.17;;;5.70;;
75261;SDS011;63859;51.064;4.580;2023-04-03T00:38:03;8.33;;;5.80;;
75261;SDS011;63859;51.064;4.580;2023-04-03T00:40:33;8.73;;;5.63;;
75261;SDS011;63859;51.064;4.580;2023-04-03T00:43:00;8.47;;;5.80;;
75261;SDS011;63859;51.064;4.580;2023-04-03T00:47:54;10.93;;;5.90;;
75261;SDS011;63859;51.064;4.580;2023-04-03T00:50:21;10.20;;;5.60;;
75261;SDS011;63859;51.064;4.580;2023-04-03T00:52:47;9.67;;;5.40;;
75261;SDS011;63859;51.064;4.580;2023-04-03T00:55:14;8.83;;;5.30;;
75261;SDS011;63859;51.064;4.580;2023-04-03T00:57:41;9.40;;;5.83;;
75261;SDS011;63859;51.064;4.580;2023-04-03T01:00:09;10.33;;;5.67;;
75261;SDS011;63859;51.064;4.580;2023-04-03T01:02:37;9.47;;;5.60;;
75261;SDS011;63859;51.064;4.580;2023-04-03T01:05:05;11.60;;;5.83;;
75261;SDS011;63859;51.064;4.580;2023-04-03T01:07:31;8.17;;;5.83;;
75261;SDS011;63859;51.064;4.580;2023-04-03T01:10:00;7.60;;;5.40;;
75261;SDS011;63859;51.064;4.580;2023-04-03T01:12:32;10.50;;;6.27;;
75261;SDS011;63859;51.064;4.580;2023-04-03T01:15:07;10.43;;;5.63;;
75261;SDS011;63859;51.064;4.580;2023-04-03T01:17:40;9.00;;;5.70;;
75261;SDS011;63859;51.064;4.580;2023-04-03T01:25:17;12.27;;;6.23;;
75261;SDS011;63859;51.064;4.580;2023-04-03T01:27:43;9.73;;;6.00;;
75261;SDS011;63859;51.064;4.580;2023-04-03T01:30:09;10.00;;;5.30;;
75261;SDS011;63859;51.064;4.580;2023-04-03T01:32:35;9.63;;;5.80;;
75261;SDS011;63859;51.064;4.580;2023-04-03T01:35:00;9.53;;;6.07;;
75261;SDS011;63859;51.064;4.580;2023-04-03T01:37:26;10.00;;;6.07;;
75261;SDS011;63859;51.064;4.580;2023-04-03T01:39:52;8.70;;;5.70;;
75261;SDS011;63859;51.064;4.580;2023-04-03T01:42:17;11.10;;;6.00;;
75261;SDS011;63859;51.064;4.580;2023-04-03T01:44:43;7.83;;;5.80;;
75261;SDS011;63859;51.064;4.580;2023-04-03T01:47:09;9.37;;;6.10;;
75261;SDS011;63859;51.064;4.580;2023-04-03T01:49:35;11.20;;;5.93;;
75261;SDS011;63859;51.064;4.580;2023-04-03T01:52:00;10.67;;;6.03;;
75261;SDS011;63859;51.064;4.580;2023-04-03T01:54:26;8.53;;;5.60;;
75261;SDS011;63859;51.064;4.580;2023-04-03T01:56:52;10.70;;;5.80;;
75261;SDS011;63859;51.064;4.580;2023-04-03T01:59:17;8.83;;;5.87;;
75261;SDS011;63859;51.064;4.580;2023-04-03T02:01:44;7.90;;;5.43;;
75261;SDS011;63859;51.064;4.580;2023-04-03T02:04:10;9.57;;;5.70;;
75261;SDS011;63859;51.064;4.580;2023-04-03T02:06:36;10.77;;;6.10;;
75261;SDS011;63859;51.064;4.580;2023-04-03T02:09:02;10.00;;;6.03;;
75261;SDS011;63859;51.064;4.580;2023-04-03T02:11:29;8.63;;;6.30;;
75261;SDS011;63859;51.064;4.580;2023-04-03T02:13:55;8.47;;;5.80;;
75261;SDS011;63859;51.064;4.580;2023-04-03T02:16:20;12.10;;;5.93;;
75261;SDS011;63859;51.064;4.580;2023-04-03T02:18:46;9.93;;;5.77;;
75261;SDS011;63859;51.064;4.580;2023-04-03T02:21:11;8.50;;;6.37;;
75261;SDS011;63859;51.064;4.580;2023-04-03T02:23:37;13.57;;;6.83;;
75261;SDS011;63859;51.064;4.580;2023-04-03T02:26:12;11.63;;;5.83;;
75261;SDS011;63859;51.064;4.580;2023-04-03T02:28:39;8.20;;;5.77;;
75261;SDS011;63859;51.064;4.580;2023-04-03T02:31:06;9.80;;;6.27;;
75261;SDS011;63859;51.064;4.580;2023-04-03T02:33:33;10.27;;;6.60;;
75261;SDS011;63859;51.064;4.580;2023-04-03T02:36:03;9.20;;;6.33;;
75261;SDS011;63859;51.064;4.580;2023-04-03T02:38:30;10.20;;;6.33;;
75261;SDS011;63859;51.064;4.580;2023-04-03T02:40:59;11.67;;;6.60;;
75261;SDS011;63859;51.064;4.580;2023-04-03T02:43:32;12.90;;;6.57;;
75261;SDS011;63859;51.064;4.580;2023-04-03T02:45:58;11.83;;;6.43;;
75261;SDS011;63859;51.064;4.580;2023-04-03T02:48:24;9.83;;;6.00;;
75261;SDS011;63859;51.064;4.580;2023-04-03T02:50:50;9.33;;;6.17;;
75261;SDS011;63859;51.064;4.580;2023-04-03T02:53:16;10.47;;;5.83;;
75261;SDS011;63859;51.064;4.580;2023-04-03T02:55:41;9.47;;;6.40;;
75261;SDS011;63859;51.064;4.580;2023-04-03T02:58:07;12.07;;;6.77;;
75261;SDS011;63859;51.064;4.580;2023-04-03T03:00:33;11.67;;;6.67;;
75261;SDS011;63859;51.064;4.580;2023-04-03T03:02:59;13.03;;;6.80;;
75261;SDS011;63859;51.064;4.580;2023-04-03T03:05:25;13.23;;;6.93;;
75261;SDS011;63859;51.064;4.580;2023-04-03T03:07:52;12.57;;;6.73;;
75261;SDS011;63859;51.064;4.580;2023-04-03T03:10:17;12.03;;;7.03;;
75261;SDS011;63859;51.064;4.580;2023-04-03T03:12:43;11.77;;;6.57;;
75261;SDS011;63859;51.064;4.580;2023-04-03T03:15:09;11.73;;;6.93;;
75261;SDS011;63859;51.064;4.580;2023-04-03T03:17:35;14.00;;;7.10;;
75261;SDS011;63859;51.064;4.580;2023-04-03T03:20:02;9.77;;;6.43;;
75261;SDS011;63859;51.064;4.580;2023-04-03T03:22:28;9.63;;;6.43;;
75261;SDS011;63859;51.064;4.580;2023-04-03T03:24:54;9.73;;;6.53;;
75261;SDS011;63859;51.064;4.580;2023-04-03T03:27:20;13.93;;;6.60;;
75261;SDS011;63859;51.064;4.580;2023-04-03T03:29:46;9.23;;;6.77;;
75261;SDS011;63859;51.064;4.580;2023-04-03T03:32:11;11.73;;;7.33;;
75261;SDS011;63859;51.064;4.580;2023-04-03T03:34:37;9.80;;;6.80;;
75261;SDS011;63859;51.064;4.580;2023-04-03T03:37:03;13.10;;;6.83;;
75261;SDS011;63859;51.064;4.580;2023-04-03T03:39:29;10.40;;;6.83;;
75261;SDS011;63859;51.064;4.580;2023-04-03T03:41:54;12.13;;;6.70;;
75261;SDS011;63859;51.064;4.580;2023-04-03T03:44:20;13.67;;;7.80;;
75261;SDS011;63859;51.064;4.580;2023-04-03T03:46:46;14.27;;;7.47;;
75261;SDS011;63859;51.064;4.580;2023-04-03T03:49:11;12.10;;;6.93;;
75261;SDS011;63859;51.064;4.580;2023-04-03T03:51:38;12.57;;;7.17;;
75261;SDS011;63859;51.064;4.580;2023-04-03T03:54:04;12.63;;;7.80;;
75261;SDS011;63859;51.064;4.580;2023-04-03T03:56:30;9.80;;;7.17;;
75261;SDS011;63859;51.064;4.580;2023-04-03T03:58:56;11.03;;;7.33;;
75261;SDS011;63859;51.064;4.580;2023-04-03T04:01:22;11.57;;;7.00;;
75261;SDS011;63859;51.064;4.580;2023-04-03T04:03:48;13.03;;;7.40;;
75261;SDS011;63859;51.064;4.580;2023-04-03T04:06:14;11.50;;;7.30;;
75261;SDS011;63859;51.064;4.580;2023-04-03T04:08:40;14.60;;;7.43;;
75261;SDS011;63859;51.064;4.580;2023-04-03T04:11:06;13.17;;;7.37;;
75261;SDS011;63859;51.064;4.580;2023-04-03T04:13:32;9.63;;;7.40;;
75261;SDS011;63859;51.064;4.580;2023-04-03T04:15:58;15.07;;;7.50;;
75261;SDS011;63859;51.064;4.580;2023-04-03T04:18:24;15.60;;;8.20;;
75261;SDS011;63859;51.064;4.580;2023-04-03T04:20:50;8.40;;;7.50;;
75261;SDS011;63859;51.064;4.580;2023-04-03T04:23:16;12.50;;;8.00;;
75261;SDS011;63859;51.064;4.580;2023-04-03T04:25:46;10.50;;;7.43;;
75261;SDS011;63859;51.064;4.580;2023-04-03T04:28:14;14.17;;;8.50;;
75261;SDS011;63859;51.064;4.580;2023-04-03T04:30:40;13.10;;;8.20;;
75261;SDS011;63859;51.064;4.580;2023-04-03T04:33:06;11.90;;;7.10;;
75261;SDS011;63859;51.064;4.580;2023-04-03T04:35:32;13.70;;;7.73;;
75261;SDS011;63859;51.064;4.580;2023-04-03T04:37:58;13.10;;;7.47;;
75261;SDS011;63859;51.064;4.580;2023-04-03T04:40:24;15.17;;;7.87;;
75261;SDS011;63859;51.064;4.580;2023-04-03T04:42:50;14.43;;;7.60;;
75261;SDS011;63859;51.064;4.580;2023-04-03T04:45:16;12.33;;;7.77;;
75261;SDS011;63859;51.064;4.580;2023-04-03T04:47:41;13.50;;;8.10;;
75261;SDS011;63859;51.064;4.580;2023-04-03T04:50:07;17.87;;;8.80;;
75261;SDS011;63859;51.064;4.580;2023-04-03T04:52:33;12.07;;;8.53;;
75261;SDS011;63859;51.064;4.580;2023-04-03T04:54:59;15.20;;;8.83;;
75261;SDS011;63859;51.064;4.580;2023-04-03T04:57:25;13.23;;;7.70;;
75261;SDS011;63859;51.064;4.580;2023-04-03T04:59:51;13.53;;;8.30;;
75261;SDS011;63859;51.064;4.580;2023-04-03T05:02:16;14.83;;;9.47;;
75261;SDS011;63859;51.064;4.580;2023-04-03T05:04:42;12.33;;;7.90;;
75261;SDS011;63859;51.064;4.580;2023-04-03T05:07:07;16.03;;;8.67;;
75261;SDS011;63859;51.064;4.580;2023-04-03T05:09:33;14.90;;;8.40;;
75261;SDS011;63859;51.064;4.580;2023-04-03T05:11:59;13.70;;;8.07;;
75261;SDS011;63859;51.064;4.580;2023-04-03T05:14:25;11.30;;;8.07;;
75261;SDS011;63859;51.064;4.580;2023-04-03T05:16:50;19.73;;;9.33;;
75261;SDS011;63859;51.064;4.580;2023-04-03T05:19:20;15.47;;;8.93;;
75261;SDS011;63859;51.064;4.580;2023-04-03T05:21:46;12.03;;;8.67;;
75261;SDS011;63859;51.064;4.580;2023-04-03T05:24:12;13.67;;;8.53;;
75261;SDS011;63859;51.064;4.580;2023-04-03T05:26:39;13.30;;;8.83;;
75261;SDS011;63859;51.064;4.580;2023-04-03T05:29:05;16.43;;;8.70;;
75261;SDS011;63859;51.064;4.580;2023-04-03T05:31:31;17.43;;;9.57;;
75261;SDS011;63859;51.064;4.580;2023-04-03T05:33:57;17.27;;;9.70;;
75261;SDS011;63859;51.064;4.580;2023-04-03T05:36:23;14.00;;;8.87;;
75261;SDS011;63859;51.064;4.580;2023-04-03T05:38:48;13.10;;;9.13;;
75261;SDS011;63859;51.064;4.580;2023-04-03T05:41:15;17.53;;;10.00;;
75261;SDS011;63859;51.064;4.580;2023-04-03T05:43:40;17.83;;;9.23;;
75261;SDS011;63859;51.064;4.580;2023-04-03T05:46:08;19.13;;;9.87;;
75261;SDS011;63859;51.064;4.580;2023-04-03T05:48:36;20.47;;;9.47;;
75261;SDS011;63859;51.064;4.580;2023-04-03T05:51:02;20.07;;;9.50;;
75261;SDS011;63859;51.064;4.580;2023-04-03T05:53:28;16.23;;;9.67;;
75261;SDS011;63859;51.064;4.580;2023-04-03T05:55:56;14.77;;;9.53;;
75261;SDS011;63859;51.064;4.580;2023-04-03T05:58:22;13.20;;;9.70;;
75261;SDS011;63859;51.064;4.580;2023-04-03T06:00:48;16.03;;;9.67;;
75261;SDS011;63859;51.064;4.580;2023-04-03T06:03:14;22.90;;;10.80;;
75261;SDS011;63859;51.064;4.580;2023-04-03T06:05:40;16.43;;;10.43;;
75261;SDS011;63859;51.064;4.580;2023-04-03T06:08:06;16.57;;;9.50;;
75261;SDS011;63859;51.064;4.580;2023-04-03T06:10:33;17.00;;;9.70;;
75261;SDS011;63859;51.064;4.580;2023-04-03T06:13:00;14.57;;;10.03;;
75261;SDS011;63859;51.064;4.580;2023-04-03T06:15:26;18.73;;;10.00;;
75261;SDS011;63859;51.064;4.580;2023-04-03T06:17:52;15.23;;;10.33;;
75261;SDS011;63859;51.064;4.580;2023-04-03T06:20:17;22.20;;;9.60;;
75261;SDS011;63859;51.064;4.580;2023-04-03T06:22:43;17.33;;;10.03;;
75261;SDS011;63859;51.064;4.580;2023-04-03T06:25:09;17.17;;;10.07;;
75261;SDS011;63859;51.064;4.580;2023-04-03T06:27:35;14.03;;;9.17;;
75261;SDS011;63859;51.064;4.580;2023-04-03T06:30:00;15.87;;;9.40;;
75261;SDS011;63859;51.064;4.580;2023-04-03T06:32:26;18.80;;;9.60;;
75261;SDS011;63859;51.064;4.580;2023-04-03T06:34:52;16.43;;;9.67;;
75261;SDS011;63859;51.064;4.580;2023-04-03T06:37:19;14.20;;;8.83;;
75261;SDS011;63859;51.064;4.580;2023-04-03T06:39:46;12.63;;;8.67;;
75261;SDS011;63859;51.064;4.580;2023-04-03T06:42:12;17.53;;;9.83;;
75261;SDS011;63859;51.064;4.580;2023-04-03T06:44:38;13.50;;;9.13;;
75261;SDS011;63859;51.064;4.580;2023-04-03T06:47:03;12.90;;;8.60;;
75261;SDS011;63859;51.064;4.580;2023-04-03T06:49:29;18.20;;;8.77;;
75261;SDS011;63859;51.064;4.580;2023-04-03T06:51:55;19.63;;;8.73;;
75261;SDS011;63859;51.064;4.580;2023-04-03T06:54:21;15.17;;;8.33;;
75261;SDS011;63859;51.064;4.580;2023-04-03T06:56:47;17.20;;;7.83;;
75261;SDS011;63859;51.064;4.580;2023-04-03T06:59:13;16.30;;;8.00;;
75261;SDS011;63859;51.064;4.580;2023-04-03T07:01:39;14.70;;;7.90;;
75261;SDS011;63859;51.064;4.580;2023-04-03T07:04:06;15.23;;;7.53;;
75261;SDS011;63859;51.064;4.580;2023-04-03T07:06:32;11.27;;;7.27;;
75261;SDS011;63859;51.064;4.580;2023-04-03T07:08:58;11.00;;;6.83;;
75261;SDS011;63859;51.064;4.580;2023-04-03T07:11:25;10.57;;;6.50;;
75261;SDS011;63859;51.064;4.580;2023-04-03T07:13:51;12.50;;;6.97;;
75261;SDS011;63859;51.064;4.580;2023-04-03T07:16:17;13.70;;;6.87;;
75261;SDS011;63859;51.064;4.580;2023-04-03T07:18:43;14.87;;;6.60;;
75261;SDS011;63859;51.064;4.580;2023-04-03T07:21:09;13.67;;;7.10;;
75261;SDS011;63859;51.064;4.580;2023-04-03T07:23:35;12.93;;;6.07;;
75261;SDS011;63859;51.064;4.580;2023-04-03T07:26:01;10.93;;;5.70;;
75261;SDS011;63859;51.064;4.580;2023-04-03T07:28:27;16.53;;;6.27;;
75261;SDS011;63859;51.064;4.580;2023-04-03T07:31:03;12.00;;;6.27;;
75261;SDS011;63859;51.064;4.580;2023-04-03T07:33:31;11.10;;;6.13;;
75261;SDS011;63859;51.064;4.580;2023-04-03T07:35:58;10.77;;;6.10;;
75261;SDS011;63859;51.064;4.580;2023-04-03T07:38:23;11.63;;;5.93;;
75261;SDS011;63859;51.064;4.580;2023-04-03T07:40:50;11.30;;;6.10;;
75261;SDS011;63859;51.064;4.580;2023-04-03T07:43:17;11.57;;;5.40;;
75261;SDS011;63859;51.064;4.580;2023-04-03T07:45:45;10.93;;;5.67;;
75261;SDS011;63859;51.064;4.580;2023-04-03T07:48:11;17.17;;;5.80;;
75261;SDS011;63859;51.064;4.580;2023-04-03T07:50:41;8.03;;;5.27;;
75261;SDS011;63859;51.064;4.580;2023-04-03T07:53:07;10.97;;;5.43;;
75261;SDS011;63859;51.064;4.580;2023-04-03T07:55:33;9.87;;;5.47;;
75261;SDS011;63859;51.064;4.580;2023-04-03T07:58:02;7.97;;;5.00;;
75261;SDS011;63859;51.064;4.580;2023-04-03T08:00:28;11.10;;;5.00;;
75261;SDS011;63859;51.064;4.580;2023-04-03T08:02:54;10.37;;;5.00;;
75261;SDS011;63859;51.064;4.580;2023-04-03T08:05:20;7.83;;;4.50;;
75261;SDS011;63859;51.064;4.580;2023-04-03T08:07:47;9.93;;;4.40;;
75261;SDS011;63859;51.064;4.580;2023-04-03T08:10:13;7.83;;;3.93;;
75261;SDS011;63859;51.064;4.580;2023-04-03T08:12:39;9.13;;;4.27;;
75261;SDS011;63859;51.064;4.580;2023-04-03T08:15:06;10.83;;;4.00;;
75261;SDS011;63859;51.064;4.580;2023-04-03T08:17:33;9.33;;;3.70;;
75261;SDS011;63859;51.064;4.580;2023-04-03T08:19:58;7.93;;;3.90;;
75261;SDS011;63859;51.064;4.580;2023-04-03T08:22:24;9.63;;;4.10;;
75261;SDS011;63859;51.064;4.580;2023-04-03T08:24:50;8.50;;;3.60;;
75261;SDS011;63859;51.064;4.580;2023-04-03T08:27:15;6.90;;;3.07;;
75261;SDS011;63859;51.064;4.580;2023-04-03T08:29:41;7.70;;;3.53;;
75261;SDS011;63859;51.064;4.580;2023-04-03T08:32:07;7.30;;;3.40;;
75261;SDS011;63859;51.064;4.580;2023-04-03T08:34:32;4.53;;;3.30;;
75261;SDS011;63859;51.064;4.580;2023-04-03T08:37:00;9.00;;;3.77;;
75261;SDS011;63859;51.064;4.580;2023-04-03T08:39:26;7.07;;;3.10;;
75261;SDS011;63859;51.064;4.580;2023-04-03T08:41:52;6.23;;;3.23;;
75261;SDS011;63859;51.064;4.580;2023-04-03T08:44:39;9.33;;;3.43;;
75261;SDS011;63859;51.064;4.580;2023-04-03T08:47:17;5.70;;;3.03;;
75261;SDS011;63859;51.064;4.580;2023-04-03T08:49:44;8.27;;;3.20;;
75261;SDS011;63859;51.064;4.580;2023-04-03T08:52:36;7.03;;;2.97;;
75261;SDS011;63859;51.064;4.580;2023-04-03T08:55:19;4.53;;;3.17;;
75261;SDS011;63859;51.064;4.580;2023-04-03T08:58:05;6.03;;;3.37;;
75261;SDS011;63859;51.064;4.580;2023-04-03T09:00:44;5.30;;;3.03;;
75261;SDS011;63859;51.064;4.580;2023-04-03T09:03:14;7.90;;;3.17;;
75261;SDS011;63859;51.064;4.580;2023-04-03T09:05:47;7.27;;;3.43;;
75261;SDS011;63859;51.064;4.580;2023-04-03T09:11:26;6.07;;;3.00;;
75261;SDS011;63859;51.064;4.580;2023-04-03T09:14:22;6.50;;;2.77;;
75261;SDS011;63859;51.064;4.580;2023-04-03T09:17:35;10.20;;;2.50;;
75261;SDS011;63859;51.064;4.580;2023-04-03T09:22:34;6.50;;;2.73;;
75261;SDS011;63859;51.064;4.580;2023-04-03T09:27:49;4.90;;;2.53;;
75261;SDS011;63859;51.064;4.580;2023-04-03T09:30:17;7.83;;;2.50;;
75261;SDS011;63859;51.064;4.580;2023-04-03T09:32:45;5.83;;;2.80;;
75261;SDS011;63859;51.064;4.580;2023-04-03T09:37:59;6.33;;;2.60;;
75261;SDS011;63859;51.064;4.580;2023-04-03T09:42:53;5.37;;;2.47;;
75261;SDS011;63859;51.064;4.580;2023-04-03T09:45:32;8.13;;;2.50;;
75261;SDS011;63859;51.064;4.580;2023-04-03T09:53:28;9.03;;;2.87;;
75261;SDS011;63859;51.064;4.580;2023-04-03T09:58:48;9.77;;;2.90;;
75261;SDS011;63859;51.064;4.580;2023-04-03T10:04:49;8.10;;;2.53;;
75261;SDS011;63859;51.064;4.580;2023-04-03T10:07:31;4.33;;;2.07;;
75261;SDS011;63859;51.064;4.580;2023-04-03T10:10:01;7.70;;;2.40;;
75261;SDS011;63859;51.064;4.580;2023-04-03T10:12:44;5.43;;;2.47;;
75261;SDS011;63859;51.064;4.580;2023-04-03T10:15:15;6.97;;;2.43;;
75261;SDS011;63859;51.064;4.580;2023-04-03T10:17:57;6.50;;;2.67;;
75261;SDS011;63859;51.064;4.580;2023-04-03T10:20:37;8.63;;;2.90;;
75261;SDS011;63859;51.064;4.580;2023-04-03T10:26:00;7.13;;;2.30;;
75261;SDS011;63859;51.064;4.580;2023-04-03T10:29:02;6.10;;;2.30;;
75261;SDS011;63859;51.064;4.580;2023-04-03T10:31:59;5.40;;;2.47;;
75261;SDS011;63859;51.064;4.580;2023-04-03T10:34:41;5.93;;;2.40;;
75261;SDS011;63859;51.064;4.580;2023-04-03T10:37:21;5.17;;;2.27;;
75261;SDS011;63859;51.064;4.580;2023-04-03T10:39:58;5.53;;;2.60;;
75261;SDS011;63859;51.064;4.580;2023-04-03T10:50:39;4.97;;;2.40;;
75261;SDS011;63859;51.064;4.580;2023-04-03T10:53:22;4.70;;;2.23;;
75261;SDS011;63859;51.064;4.580;2023-04-03T10:56:07;3.03;;;1.90;;
75261;SDS011;63859;51.064;4.580;2023-04-03T10:58:53;6.13;;;1.90;;
75261;SDS011;63859;51.064;4.580;2023-04-03T11:01:29;3.60;;;2.10;;
75261;SDS011;63859;51.064;4.580;2023-04-03T11:04:00;10.27;;;2.20;;
75261;SDS011;63859;51.064;4.580;2023-04-03T11:06:32;4.27;;;1.90;;
75261;SDS011;63859;51.064;4.580;2023-04-03T11:09:19;2.63;;;1.87;;
75261;SDS011;63859;51.064;4.580;2023-04-03T11:11:58;5.60;;;1.70;;
75261;SDS011;63859;51.064;4.580;2023-04-03T11:14:30;3.80;;;2.00;;
75261;SDS011;63859;51.064;4.580;2023-04-03T11:17:05;4.27;;;1.87;;
75261;SDS011;63859;51.064;4.580;2023-04-03T11:19:45;6.33;;;1.97;;
75261;SDS011;63859;51.064;4.580;2023-04-03T11:22:32;2.23;;;1.70;;
75261;SDS011;63859;51.064;4.580;2023-04-03T11:27:38;3.47;;;1.67;;
75261;SDS011;63859;51.064;4.580;2023-04-03T11:30:58;2.60;;;1.60;;
75261;SDS011;63859;51.064;4.580;2023-04-03T11:35:57;2.80;;;1.63;;
75261;SDS011;63859;51.064;4.580;2023-04-03T11:38:36;5.60;;;1.50;;
75261;SDS011;63859;51.064;4.580;2023-04-03T11:41:07;6.10;;;1.73;;
75261;SDS011;63859;51.064;4.580;2023-04-03T11:43:39;4.10;;;1.67;;
75261;SDS011;63859;51.064;4.580;2023-04-03T11:46:48;4.27;;;1.60;;
75261;SDS011;63859;51.064;4.580;2023-04-03T11:49:53;4.23;;;1.63;;
75261;SDS011;63859;51.064;4.580;2023-04-03T11:58:30;3.10;;;1.60;;
75261;SDS011;63859;51.064;4.580;2023-04-03T12:21:19;2.38;;;1.52;;
75261;SDS011;63859;51.064;4.580;2023-04-03T12:46:14;5.25;;;1.75;;
75261;SDS011;63859;51.064;4.580;2023-04-03T12:48:51;2.22;;;1.75;;
75261;SDS011;63859;51.064;4.580;2023-04-03T12:54:03;4.30;;;1.80;;
75261;SDS011;63859;51.064;4.580;2023-04-03T12:56:38;4.80;;;1.88;;
75261;SDS011;63859;51.064;4.580;2023-04-03T12:59:15;4.07;;;1.90;;
75261;SDS011;63859;51.064;4.580;2023-04-03T13:02:00;2.72;;;1.60;;
75261;SDS011;63859;51.064;4.580;2023-04-03T13:04:28;3.38;;;1.70;;
75261;SDS011;63859;51.064;4.580;2023-04-03T13:06:55;3.85;;;1.70;;
75261;SDS011;63859;51.064;4.580;2023-04-03T13:11:59;2.08;;;1.48;;
75261;SDS011;63859;51.064;4.580;2023-04-03T13:14:29;3.17;;;1.65;;
75261;SDS011;63859;51.064;4.580;2023-04-03T13:16:57;6.30;;;2.00;;
75261;SDS011;63859;51.064;4.580;2023-04-03T13:19:25;5.60;;;1.90;;
75261;SDS011;63859;51.064;4.580;2023-04-03T13:21:59;3.30;;;1.92;;
75261;SDS011;63859;51.064;4.580;2023-04-03T13:24:30;4.03;;;2.10;;
75261;SDS011;63859;51.064;4.580;2023-04-03T13:26:58;8.60;;;2.92;;
75261;SDS011;63859;51.064;4.580;2023-04-03T13:29:31;5.70;;;1.88;;
75261;SDS011;63859;51.064;4.580;2023-04-03T13:31:59;4.00;;;2.10;;
75261;SDS011;63859;51.064;4.580;2023-04-03T13:34:27;9.18;;;2.40;;
75261;SDS011;63859;51.064;4.580;2023-04-03T13:37:00;5.55;;;2.38;;
75261;SDS011;63859;51.064;4.580;2023-04-03T13:39:35;6.07;;;2.40;;
75261;SDS011;63859;51.064;4.580;2023-04-03T13:42:22;3.67;;;1.92;;
75261;SDS011;63859;51.064;4.580;2023-04-03T13:45:05;2.72;;;1.92;;
75261;SDS011;63859;51.064;4.580;2023-04-03T13:47:42;2.28;;;1.70;;
75261;SDS011;63859;51.064;4.580;2023-04-03T13:53:08;4.30;;;2.05;;
75261;SDS011;63859;51.064;4.580;2023-04-03T13:55:51;5.05;;;1.90;;
75261;SDS011;63859;51.064;4.580;2023-04-03T13:58:33;3.75;;;1.45;;
75261;SDS011;63859;51.064;4.580;2023-04-03T14:03:44;2.47;;;1.67;;
75261;SDS011;63859;51.064;4.580;2023-04-03T14:06:14;3.03;;;1.58;;
75261;SDS011;63859;51.064;4.580;2023-04-03T14:08:41;3.13;;;1.58;;
75261;SDS011;63859;51.064;4.580;2023-04-03T14:11:09;3.28;;;1.85;;
75261;SDS011;63859;51.064;4.580;2023-04-03T14:13:42;5.32;;;1.45;;
75261;SDS011;63859;51.064;4.580;2023-04-03T14:16:11;1.98;;;1.30;;
75261;SDS011;63859;51.064;4.580;2023-04-03T14:18:41;6.85;;;2.15;;
75261;SDS011;63859;51.064;4.580;2023-04-03T14:21:10;6.05;;;1.83;;
75261;SDS011;63859;51.064;4.580;2023-04-03T14:23:37;3.67;;;1.65;;
75261;SDS011;63859;51.064;4.580;2023-04-03T14:26:04;4.20;;;1.60;;
75261;SDS011;63859;51.064;4.580;2023-04-03T14:28:38;3.05;;;1.80;;
75261;SDS011;63859;51.064;4.580;2023-04-03T14:31:05;4.45;;;1.90;;
75261;SDS011;63859;51.064;4.580;2023-04-03T14:33:31;4.10;;;1.67;;
75261;SDS011;63859;51.064;4.580;2023-04-03T14:36:00;2.22;;;1.40;;
75261;SDS011;63859;51.064;4.580;2023-04-03T14:38:28;4.13;;;1.60;;
75261;SDS011;63859;51.064;4.580;2023-04-03T14:40:56;5.25;;;1.98;;
75261;SDS011;63859;51.064;4.580;2023-04-03T14:43:22;23.65;;;2.78;;
75261;SDS011;63859;51.064;4.580;2023-04-03T14:45:49;12.82;;;2.00;;
75261;SDS011;63859;51.064;4.580;2023-04-03T14:48:20;3.65;;;1.40;;
75261;SDS011;63859;51.064;4.580;2023-04-03T14:50:48;8.00;;;1.77;;
75261;SDS011;63859;51.064;4.580;2023-04-03T14:53:15;8.13;;;1.80;;
75261;SDS011;63859;51.064;4.580;2023-04-03T14:55:42;14.52;;;2.05;;
75261;SDS011;63859;51.064;4.580;2023-04-03T14:58:14;35.03;;;2.70;;
75261;SDS011;63859;51.064;4.580;2023-04-03T15:00:41;7.68;;;1.70;;
75261;SDS011;63859;51.064;4.580;2023-04-03T15:03:10;5.53;;;1.73;;
75261;SDS011;63859;51.064;4.580;2023-04-03T15:05:45;6.25;;;1.70;;
75261;SDS011;63859;51.064;4.580;2023-04-03T15:08:16;3.75;;;1.65;;
75261;SDS011;63859;51.064;4.580;2023-04-03T15:10:47;5.00;;;1.92;;
75261;SDS011;63859;51.064;4.580;2023-04-03T15:13:13;6.32;;;3.60;;
75261;SDS011;63859;51.064;4.580;2023-04-03T15:15:39;2.47;;;1.80;;
75261;SDS011;63859;51.064;4.580;2023-04-03T15:18:05;7.03;;;4.00;;
75261;SDS011;63859;51.064;4.580;2023-04-03T15:20:31;3.22;;;1.70;;
75261;SDS011;63859;51.064;4.580;2023-04-03T15:22:58;3.00;;;1.48;;
75261;SDS011;63859;51.064;4.580;2023-04-03T15:25:29;2.53;;;1.50;;
75261;SDS011;63859;51.064;4.580;2023-04-03T15:27:55;2.88;;;1.58;;
75261;SDS011;63859;51.064;4.580;2023-04-03T15:30:22;3.67;;;1.70;;
75261;SDS011;63859;51.064;4.580;2023-04-03T15:32:48;4.00;;;1.50;;
75261;SDS011;63859;51.064;4.580;2023-04-03T15:35:14;2.65;;;1.50;;
75261;SDS011;63859;51.064;4.580;2023-04-03T15:37:40;6.63;;;1.80;;
75261;SDS011;63859;51.064;4.580;2023-04-03T15:40:06;2.67;;;1.73;;
75261;SDS011;63859;51.064;4.580;2023-04-03T15:42:32;3.78;;;1.73;;
75261;SDS011;63859;51.064;4.580;2023-04-03T15:44:58;4.85;;;1.77;;
75261;SDS011;63859;51.064;4.580;2023-04-03T15:47:24;5.10;;;1.55;;
75261;SDS011;63859;51.064;4.580;2023-04-03T15:49:50;4.10;;;1.70;;
75261;SDS011;63859;51.064;4.580;2023-04-03T15:52:16;2.55;;;1.60;;
75261;SDS011;63859;51.064;4.580;2023-04-03T15:54:42;3.55;;;1.65;;
75261;SDS011;63859;51.064;4.580;2023-04-03T15:57:07;3.35;;;1.70;;
75261;SDS011;63859;51.064;4.580;2023-04-03T15:59:33;3.05;;;1.70;;
75261;SDS011;63859;51.064;4.580;2023-04-03T16:01:58;4.97;;;1.92;;
75261;SDS011;63859;51.064;4.580;2023-04-03T16:04:26;3.55;;;1.60;;
75261;SDS011;63859;51.064;4.580;2023-04-03T16:06:52;3.67;;;1.65;;
75261;SDS011;63859;51.064;4.580;2023-04-03T16:09:18;3.00;;;1.55;;
75261;SDS011;63859;51.064;4.580;2023-04-03T16:11:44;3.92;;;1.60;;
75261;SDS011;63859;51.064;4.580;2023-04-03T16:14:10;4.32;;;1.70;;
75261;SDS011;63859;51.064;4.580;2023-04-03T16:16:36;2.35;;;1.80;;
75261;SDS011;63859;51.064;4.580;2023-04-03T16:19:02;3.35;;;1.75;;
75261;SDS011;63859;51.064;4.580;2023-04-03T16:21:29;6.40;;;1.98;;
75261;SDS011;63859;51.064;4.580;2023-04-03T16:23:58;2.80;;;1.92;;
75261;SDS011;63859;51.064;4.580;2023-04-03T16:26:25;4.15;;;1.67;;
75261;SDS011;63859;51.064;4.580;2023-04-03T16:28:51;3.33;;;1.90;;
75261;SDS011;63859;51.064;4.580;2023-04-03T16:31:17;4.25;;;1.70;;
75261;SDS011;63859;51.064;4.580;2023-04-03T16:33:43;7.35;;;2.10;;
75261;SDS011;63859;51.064;4.580;2023-04-03T16:36:09;2.53;;;1.65;;
75261;SDS011;63859;51.064;4.580;2023-04-03T16:38:35;3.25;;;1.77;;
75261;SDS011;63859;51.064;4.580;2023-04-03T16:41:01;5.85;;;1.88;;
75261;SDS011;63859;51.064;4.580;2023-04-03T16:43:29;4.20;;;1.92;;